sensor_id;sensor_type;location;lat;lon;timestamp;P1;durP1;ratioP1;P2;durP2;ratioP2
60494;SDS011;46342;49.046;11.920;2022-10-04T00:01:29;6.53;;;4.55;;
60494;SDS011;46342;49.046;11.920;2022-10-04T00:04:13;7.15;;;3.30;;
60494;SDS011;46342;49.046;11.920;2022-10-04T00:06:52;3.92;;;2.33;;
60494;SDS011;46342;49.046;11.920;2022-10-04T00:09:33;2.45;;;2.00;;
60494;SDS011;46342;49.046;11.920;2022-10-04T00:12:19;3.97;;;1.98;;
60494;SDS011;46342;49.046;11.920;2022-10-04T00:14:49;10.60;;;3.05;;
60494;SDS011;46342;49.046;11.920;2022-10-04T00:17:19;4.40;;;1.73;;
60494;SDS011;46342;49.046;11.920;2022-10-04T00:19:49;2.35;;;1.90;;
60494;SDS011;46342;49.046;11.920;2022-10-04T00:22:19;3.00;;;1.80;;
60494;SDS011;46342;49.046;11.920;2022-10-04T00:25:00;2.22;;;1.60;;
60494;SDS011;46342;49.046;11.920;2022-10-04T00:27:34;3.03;;;1.60;;
60494;SDS011;46342;49.046;11.920;2022-10-04T00:34:56;2.20;;;1.67;;
60494;SDS011;46342;49.046;11.920;2022-10-04T00:37:23;3.78;;;1.40;;
60494;SDS011;46342;49.046;11.920;2022-10-04T00:48:32;8.45;;;1.67;;
60494;SDS011;46342;49.046;11.920;2022-10-04T01:01:48;3.33;;;1.70;;
60494;SDS011;46342;49.046;11.920;2022-10-04T01:04:23;15.25;;;1.75;;
60494;SDS011;46342;49.046;11.920;2022-10-04T01:07:11;1.85;;;1.63;;
60494;SDS011;46342;49.046;11.920;2022-10-04T01:09:45;3.13;;;1.55;;
60494;SDS011;46342;49.046;11.920;2022-10-04T01:12:17;1.92;;;1.17;;
60494;SDS011;46342;49.046;11.920;2022-10-04T01:17:36;1.90;;;1.23;;
60494;SDS011;46342;49.046;11.920;2022-10-04T01:20:02;3.25;;;1.52;;
60494;SDS011;46342;49.046;11.920;2022-10-04T01:22:30;2.40;;;1.33;;
60494;SDS011;46342;49.046;11.920;2022-10-04T01:25:04;3.67;;;1.55;;
60494;SDS011;46342;49.046;11.920;2022-10-04T01:30:04;2.55;;;1.40;;
60494;SDS011;46342;49.046;11.920;2022-10-04T01:32:38;2.00;;;1.52;;
60494;SDS011;46342;49.046;11.920;2022-10-04T01:35:05;7.07;;;1.60;;
60494;SDS011;46342;49.046;11.920;2022-10-04T01:37:33;4.63;;;1.55;;
60494;SDS011;46342;49.046;11.920;2022-10-04T01:39:58;3.80;;;1.20;;
60494;SDS011;46342;49.046;11.920;2022-10-04T01:42:46;2.08;;;1.38;;
60494;SDS011;46342;49.046;11.920;2022-10-04T01:48:10;1.42;;;1.30;;
60494;SDS011;46342;49.046;11.920;2022-10-04T01:50:44;1.92;;;1.13;;
60494;SDS011;46342;49.046;11.920;2022-10-04T01:53:39;1.42;;;1.25;;
60494;SDS011;46342;49.046;11.920;2022-10-04T01:56:12;1.80;;;1.38;;
60494;SDS011;46342;49.046;11.920;2022-10-04T01:59:01;2.60;;;1.65;;
60494;SDS011;46342;49.046;11.920;2022-10-04T02:01:42;4.30;;;1.50;;
60494;SDS011;46342;49.046;11.920;2022-10-04T02:04:14;1.70;;;1.40;;
60494;SDS011;46342;49.046;11.920;2022-10-04T02:06:52;3.15;;;1.27;;
60494;SDS011;46342;49.046;11.920;2022-10-04T02:09:22;4.03;;;1.40;;
60494;SDS011;46342;49.046;11.920;2022-10-04T02:11:53;1.80;;;1.20;;
60494;SDS011;46342;49.046;11.920;2022-10-04T02:14:24;3.95;;;1.50;;
60494;SDS011;46342;49.046;11.920;2022-10-04T02:16:57;8.13;;;1.75;;
60494;SDS011;46342;49.046;11.920;2022-10-04T02:19:26;3.65;;;1.38;;
60494;SDS011;46342;49.046;11.920;2022-10-04T02:21:58;1.20;;;1.10;;
60494;SDS011;46342;49.046;11.920;2022-10-04T02:24:31;1.55;;;1.30;;
60494;SDS011;46342;49.046;11.920;2022-10-04T02:26:59;2.22;;;1.20;;
60494;SDS011;46342;49.046;11.920;2022-10-04T02:29:25;1.40;;;1.30;;
60494;SDS011;46342;49.046;11.920;2022-10-04T02:31:51;2.03;;;1.83;;
60494;SDS011;46342;49.046;11.920;2022-10-04T02:34:36;1.35;;;1.00;;
60494;SDS011;46342;49.046;11.920;2022-10-04T02:37:03;3.53;;;1.38;;
60494;SDS011;46342;49.046;11.920;2022-10-04T02:39:35;1.70;;;1.10;;
60494;SDS011;46342;49.046;11.920;2022-10-04T02:44:59;1.35;;;1.13;;
60494;SDS011;46342;49.046;11.920;2022-10-04T02:47:41;4.70;;;1.30;;
60494;SDS011;46342;49.046;11.920;2022-10-04T02:50:20;2.50;;;1.20;;
60494;SDS011;46342;49.046;11.920;2022-10-04T02:52:56;3.55;;;1.20;;
60494;SDS011;46342;49.046;11.920;2022-10-04T02:55:40;3.08;;;1.20;;
60494;SDS011;46342;49.046;11.920;2022-10-04T02:58:08;1.77;;;1.23;;
60494;SDS011;46342;49.046;11.920;2022-10-04T03:00:48;3.38;;;1.45;;
60494;SDS011;46342;49.046;11.920;2022-10-04T03:06:05;8.80;;;1.38;;
60494;SDS011;46342;49.046;11.920;2022-10-04T03:09:15;1.20;;;1.10;;
60494;SDS011;46342;49.046;11.920;2022-10-04T03:11:28;1.27;;;1.10;;
60494;SDS011;46342;49.046;11.920;2022-10-04T03:13:58;6.28;;;1.10;;
60494;SDS011;46342;49.046;11.920;2022-10-04T03:16:25;5.38;;;1.30;;
60494;SDS011;46342;49.046;11.920;2022-10-04T03:18:52;1.10;;;1.10;;
60494;SDS011;46342;49.046;11.920;2022-10-04T03:21:20;1.48;;;1.27;;
60494;SDS011;46342;49.046;11.920;2022-10-04T03:23:48;3.05;;;1.05;;
60494;SDS011;46342;49.046;11.920;2022-10-04T03:28:57;3.33;;;1.05;;
60494;SDS011;46342;49.046;11.920;2022-10-04T03:31:24;2.63;;;1.20;;
60494;SDS011;46342;49.046;11.920;2022-10-04T03:33:55;3.33;;;1.10;;
60494;SDS011;46342;49.046;11.920;2022-10-04T03:36:22;2.72;;;1.10;;
60494;SDS011;46342;49.046;11.920;2022-10-04T03:41:17;6.33;;;1.53;;
60494;SDS011;46342;49.046;11.920;2022-10-04T03:43:47;2.47;;;1.05;;
60494;SDS011;46342;49.046;11.920;2022-10-04T03:46:14;4.70;;;1.20;;
60494;SDS011;46342;49.046;11.920;2022-10-04T03:48:43;5.30;;;1.20;;
60494;SDS011;46342;49.046;11.920;2022-10-04T03:51:15;6.75;;;1.40;;
60494;SDS011;46342;49.046;11.920;2022-10-04T03:53:50;0.98;;;0.98;;
60494;SDS011;46342;49.046;11.920;2022-10-04T03:58:51;1.20;;;1.10;;
60494;SDS011;46342;49.046;11.920;2022-10-04T04:09:20;0.82;;;0.82;;
60494;SDS011;46342;49.046;11.920;2022-10-04T04:12:09;3.70;;;1.25;;
60494;SDS011;46342;49.046;11.920;2022-10-04T04:14:39;2.13;;;0.98;;
60494;SDS011;46342;49.046;11.920;2022-10-04T04:17:40;1.17;;;1.00;;
60494;SDS011;46342;49.046;11.920;2022-10-04T04:20:06;1.05;;;1.00;;
60494;SDS011;46342;49.046;11.920;2022-10-04T04:22:47;2.60;;;1.20;;
60494;SDS011;46342;49.046;11.920;2022-10-04T04:25:24;3.20;;;1.30;;
60494;SDS011;46342;49.046;11.920;2022-10-04T04:27:55;0.90;;;0.90;;
60494;SDS011;46342;49.046;11.920;2022-10-04T04:30:26;1.00;;;0.95;;
60494;SDS011;46342;49.046;11.920;2022-10-04T04:32:55;1.13;;;1.02;;
60494;SDS011;46342;49.046;11.920;2022-10-04T04:35:30;1.40;;;1.20;;
60494;SDS011;46342;49.046;11.920;2022-10-04T04:38:04;1.05;;;0.95;;
60494;SDS011;46342;49.046;11.920;2022-10-04T04:40:37;0.90;;;0.90;;
60494;SDS011;46342;49.046;11.920;2022-10-04T04:43:03;1.10;;;0.90;;
60494;SDS011;46342;49.046;11.920;2022-10-04T04:45:29;5.20;;;2.72;;
60494;SDS011;46342;49.046;11.920;2022-10-04T04:47:56;1.30;;;1.20;;
60494;SDS011;46342;49.046;11.920;2022-10-04T04:50:34;6.47;;;3.53;;
60494;SDS011;46342;49.046;11.920;2022-10-04T04:53:46;7.88;;;2.20;;
60494;SDS011;46342;49.046;11.920;2022-10-04T04:55:54;4.50;;;2.15;;
60494;SDS011;46342;49.046;11.920;2022-10-04T04:58:34;2.80;;;1.60;;
60494;SDS011;46342;49.046;11.920;2022-10-04T05:03:30;7.72;;;4.70;;
60494;SDS011;46342;49.046;11.920;2022-10-04T05:05:58;5.28;;;2.78;;
60494;SDS011;46342;49.046;11.920;2022-10-04T05:08:27;4.45;;;2.08;;
60494;SDS011;46342;49.046;11.920;2022-10-04T05:13:43;7.55;;;4.55;;
60494;SDS011;46342;49.046;11.920;2022-10-04T05:16:14;5.32;;;2.60;;
60494;SDS011;46342;49.046;11.920;2022-10-04T05:18:44;2.40;;;2.05;;
60494;SDS011;46342;49.046;11.920;2022-10-04T05:21:12;27.13;;;11.40;;
60494;SDS011;46342;49.046;11.920;2022-10-04T05:23:51;26.35;;;11.70;;
60494;SDS011;46342;49.046;11.920;2022-10-04T05:26:20;16.35;;;7.60;;
60494;SDS011;46342;49.046;11.920;2022-10-04T05:28:51;5.82;;;3.05;;
60494;SDS011;46342;49.046;11.920;2022-10-04T05:31:34;7.55;;;2.20;;
60494;SDS011;46342;49.046;11.920;2022-10-04T05:34:28;9.00;;;2.47;;
60494;SDS011;46342;49.046;11.920;2022-10-04T05:39:33;2.45;;;1.55;;
60494;SDS011;46342;49.046;11.920;2022-10-04T05:42:04;2.92;;;1.90;;
60494;SDS011;46342;49.046;11.920;2022-10-04T05:44:49;1.67;;;1.33;;
60494;SDS011;46342;49.046;11.920;2022-10-04T05:47:17;5.23;;;1.50;;
60494;SDS011;46342;49.046;11.920;2022-10-04T05:49:49;1.80;;;1.50;;
60494;SDS011;46342;49.046;11.920;2022-10-04T05:52:32;4.40;;;2.45;;
60494;SDS011;46342;49.046;11.920;2022-10-04T05:55:12;2.63;;;1.70;;
60494;SDS011;46342;49.046;11.920;2022-10-04T05:57:45;1.38;;;1.10;;
60494;SDS011;46342;49.046;11.920;2022-10-04T06:00:19;9.15;;;3.72;;
60494;SDS011;46342;49.046;11.920;2022-10-04T06:02:56;19.70;;;8.30;;
60494;SDS011;46342;49.046;11.920;2022-10-04T06:11:02;2.28;;;1.40;;
60494;SDS011;46342;49.046;11.920;2022-10-04T06:19:36;7.97;;;1.88;;
60494;SDS011;46342;49.046;11.920;2022-10-04T06:22:24;1.50;;;1.30;;
60494;SDS011;46342;49.046;11.920;2022-10-04T06:25:03;1.65;;;1.35;;
60494;SDS011;46342;49.046;11.920;2022-10-04T06:30:16;3.58;;;1.35;;
60494;SDS011;46342;49.046;11.920;2022-10-04T06:32:58;5.50;;;4.15;;
60494;SDS011;46342;49.046;11.920;2022-10-04T06:35:48;3.58;;;2.60;;
60494;SDS011;46342;49.046;11.920;2022-10-04T06:54:47;15.65;;;7.40;;
60494;SDS011;46342;49.046;11.920;2022-10-04T07:03:03;16.85;;;7.90;;
60494;SDS011;46342;49.046;11.920;2022-10-04T07:05:46;21.23;;;10.13;;
60494;SDS011;46342;49.046;11.920;2022-10-04T07:08:17;9.40;;;4.82;;
60494;SDS011;46342;49.046;11.920;2022-10-04T07:13:53;3.50;;;2.40;;
60494;SDS011;46342;49.046;11.920;2022-10-04T07:16:27;6.55;;;1.85;;
60494;SDS011;46342;49.046;11.920;2022-10-04T07:22:00;4.15;;;2.70;;
60494;SDS011;46342;49.046;11.920;2022-10-04T07:30:16;3.33;;;1.73;;
60494;SDS011;46342;49.046;11.920;2022-10-04T07:32:44;3.45;;;1.95;;
60494;SDS011;46342;49.046;11.920;2022-10-04T07:35:14;2.50;;;1.98;;
60494;SDS011;46342;49.046;11.920;2022-10-04T07:40:27;2.10;;;1.58;;
60494;SDS011;46342;49.046;11.920;2022-10-04T07:43:30;2.25;;;1.85;;
60494;SDS011;46342;49.046;11.920;2022-10-04T07:46:03;2.25;;;1.67;;
60494;SDS011;46342;49.046;11.920;2022-10-04T07:53:57;3.13;;;1.95;;
60494;SDS011;46342;49.046;11.920;2022-10-04T07:56:39;5.65;;;1.80;;
60494;SDS011;46342;49.046;11.920;2022-10-04T08:02:20;2.67;;;1.90;;
60494;SDS011;46342;49.046;11.920;2022-10-04T08:05:40;2.67;;;1.80;;
60494;SDS011;46342;49.046;11.920;2022-10-04T08:10:49;3.17;;;2.00;;
60494;SDS011;46342;49.046;11.920;2022-10-04T08:19:18;7.05;;;2.88;;
60494;SDS011;46342;49.046;11.920;2022-10-04T08:22:12;2.92;;;1.85;;
60494;SDS011;46342;49.046;11.920;2022-10-04T08:31:45;1.70;;;1.60;;
60494;SDS011;46342;49.046;11.920;2022-10-04T08:39:56;3.28;;;1.70;;
60494;SDS011;46342;49.046;11.920;2022-10-04T09:05:06;5.57;;;2.08;;
60494;SDS011;46342;49.046;11.920;2022-10-04T09:16:12;2.78;;;1.88;;
60494;SDS011;46342;49.046;11.920;2022-10-04T09:18:48;4.70;;;1.90;;
60494;SDS011;46342;49.046;11.920;2022-10-04T09:21:27;3.22;;;1.80;;
60494;SDS011;46342;49.046;11.920;2022-10-04T09:32:54;2.30;;;1.50;;
60494;SDS011;46342;49.046;11.920;2022-10-04T09:55:03;2.75;;;1.40;;
60494;SDS011;46342;49.046;11.920;2022-10-04T09:58:04;2.08;;;1.52;;
60494;SDS011;46342;49.046;11.920;2022-10-04T10:03:34;2.92;;;1.70;;
60494;SDS011;46342;49.046;11.920;2022-10-04T10:12:18;2.75;;;1.65;;
60494;SDS011;46342;49.046;11.920;2022-10-04T10:17:39;1.80;;;1.27;;
60494;SDS011;46342;49.046;11.920;2022-10-04T10:28:41;2.17;;;1.35;;
60494;SDS011;46342;49.046;11.920;2022-10-04T10:37:30;1.20;;;1.10;;
60494;SDS011;46342;49.046;11.920;2022-10-04T10:51:34;3.15;;;1.40;;
60494;SDS011;46342;49.046;11.920;2022-10-04T10:56:55;1.23;;;1.10;;
60494;SDS011;46342;49.046;11.920;2022-10-04T11:25:37;1.10;;;0.95;;
60494;SDS011;46342;49.046;11.920;2022-10-04T11:40:27;2.40;;;0.90;;
60494;SDS011;46342;49.046;11.920;2022-10-04T12:00:24;1.27;;;0.90;;
60494;SDS011;46342;49.046;11.920;2022-10-04T12:11:33;1.65;;;0.73;;
60494;SDS011;46342;49.046;11.920;2022-10-04T12:14:47;3.35;;;0.82;;
60494;SDS011;46342;49.046;11.920;2022-10-04T12:31:42;5.03;;;0.90;;
60494;SDS011;46342;49.046;11.920;2022-10-04T12:34:15;1.88;;;0.88;;
60494;SDS011;46342;49.046;11.920;2022-10-04T12:58:50;4.88;;;0.98;;
60494;SDS011;46342;49.046;11.920;2022-10-04T13:01:44;1.85;;;1.10;;
60494;SDS011;46342;49.046;11.920;2022-10-04T13:12:59;0.93;;;0.90;;
60494;SDS011;46342;49.046;11.920;2022-10-04T13:15:42;1.45;;;0.85;;
60494;SDS011;46342;49.046;11.920;2022-10-04T13:21:38;2.05;;;1.38;;
60494;SDS011;46342;49.046;11.920;2022-10-04T13:27:18;1.92;;;1.27;;
60494;SDS011;46342;49.046;11.920;2022-10-04T13:30:28;3.03;;;2.03;;
60494;SDS011;46342;49.046;11.920;2022-10-04T13:33:05;1.48;;;1.15;;
60494;SDS011;46342;49.046;11.920;2022-10-04T13:35:48;2.83;;;1.45;;
60494;SDS011;46342;49.046;11.920;2022-10-04T13:46:47;1.48;;;1.00;;
60494;SDS011;46342;49.046;11.920;2022-10-04T13:49:28;2.08;;;1.08;;
60494;SDS011;46342;49.046;11.920;2022-10-04T13:55:16;4.60;;;1.40;;
60494;SDS011;46342;49.046;11.920;2022-10-04T14:01:27;1.15;;;1.00;;
60494;SDS011;46342;49.046;11.920;2022-10-04T14:13:01;4.95;;;1.45;;
60494;SDS011;46342;49.046;11.920;2022-10-04T14:19:11;2.60;;;1.00;;
60494;SDS011;46342;49.046;11.920;2022-10-04T14:30:19;1.15;;;0.90;;
60494;SDS011;46342;49.046;11.920;2022-10-04T14:38:32;2.60;;;1.10;;
60494;SDS011;46342;49.046;11.920;2022-10-04T14:41:43;0.90;;;0.90;;
60494;SDS011;46342;49.046;11.920;2022-10-04T15:14:28;3.08;;;1.20;;
60494;SDS011;46342;49.046;11.920;2022-10-04T15:16:58;1.27;;;1.05;;
60494;SDS011;46342;49.046;11.920;2022-10-04T15:19:27;2.13;;;1.25;;
60494;SDS011;46342;49.046;11.920;2022-10-04T15:22:25;1.27;;;1.17;;
60494;SDS011;46342;49.046;11.920;2022-10-04T15:24:55;1.83;;;1.15;;
60494;SDS011;46342;49.046;11.920;2022-10-04T19:40:46;5.93;;;4.25;;
60494;SDS011;46342;49.046;11.920;2022-10-04T19:43:28;5.70;;;4.50;;
60494;SDS011;46342;49.046;11.920;2022-10-04T19:46:16;7.85;;;4.72;;
60494;SDS011;46342;49.046;11.920;2022-10-04T19:48:56;6.72;;;4.53;;
60494;SDS011;46342;49.046;11.920;2022-10-04T19:51:33;7.30;;;3.92;;
60494;SDS011;46342;49.046;11.920;2022-10-04T19:54:15;5.72;;;3.60;;
60494;SDS011;46342;49.046;11.920;2022-10-04T19:56:46;9.57;;;4.35;;
60494;SDS011;46342;49.046;11.920;2022-10-04T19:59:16;6.43;;;4.55;;
60494;SDS011;46342;49.046;11.920;2022-10-04T20:01:46;5.22;;;3.92;;
60494;SDS011;46342;49.046;11.920;2022-10-04T20:04:14;5.15;;;3.88;;
60494;SDS011;46342;49.046;11.920;2022-10-04T20:07:00;3.97;;;3.08;;
60494;SDS011;46342;49.046;11.920;2022-10-04T20:12:05;5.90;;;3.83;;
60494;SDS011;46342;49.046;11.920;2022-10-04T20:17:58;4.10;;;3.63;;
60494;SDS011;46342;49.046;11.920;2022-10-04T20:23:07;4.50;;;3.20;;
60494;SDS011;46342;49.046;11.920;2022-10-04T20:28:09;5.97;;;3.40;;
60494;SDS011;46342;49.046;11.920;2022-10-04T20:30:54;4.82;;;3.13;;
60494;SDS011;46342;49.046;11.920;2022-10-04T20:36:09;7.90;;;4.00;;
60494;SDS011;46342;49.046;11.920;2022-10-04T20:38:59;4.50;;;3.47;;
60494;SDS011;46342;49.046;11.920;2022-10-04T20:44:01;4.97;;;3.90;;
60494;SDS011;46342;49.046;11.920;2022-10-04T20:46:37;4.03;;;3.15;;
60494;SDS011;46342;49.046;11.920;2022-10-04T20:49:03;6.70;;;3.63;;
60494;SDS011;46342;49.046;11.920;2022-10-04T20:51:38;5.13;;;3.35;;
60494;SDS011;46342;49.046;11.920;2022-10-04T20:54:15;4.20;;;3.47;;
60494;SDS011;46342;49.046;11.920;2022-10-04T20:56:42;4.13;;;3.60;;
60494;SDS011;46342;49.046;11.920;2022-10-04T20:59:12;5.30;;;3.80;;
60494;SDS011;46342;49.046;11.920;2022-10-04T21:01:42;4.43;;;3.10;;
60494;SDS011;46342;49.046;11.920;2022-10-04T21:04:28;6.45;;;3.05;;
60494;SDS011;46342;49.046;11.920;2022-10-04T21:07:06;5.35;;;3.05;;
60494;SDS011;46342;49.046;11.920;2022-10-04T21:09:36;5.90;;;2.47;;
60494;SDS011;46342;49.046;11.920;2022-10-04T21:12:04;3.73;;;2.70;;
60494;SDS011;46342;49.046;11.920;2022-10-04T21:16:58;6.55;;;2.95;;
60494;SDS011;46342;49.046;11.920;2022-10-04T21:21:56;4.55;;;2.60;;
60494;SDS011;46342;49.046;11.920;2022-10-04T21:27:09;3.45;;;2.42;;
60494;SDS011;46342;49.046;11.920;2022-10-04T21:29:37;6.40;;;2.78;;
60494;SDS011;46342;49.046;11.920;2022-10-04T21:32:03;4.10;;;2.50;;
60494;SDS011;46342;49.046;11.920;2022-10-04T21:34:29;4.63;;;3.03;;
60494;SDS011;46342;49.046;11.920;2022-10-04T21:36:55;3.60;;;2.83;;
60494;SDS011;46342;49.046;11.920;2022-10-04T21:39:22;5.35;;;3.53;;
60494;SDS011;46342;49.046;11.920;2022-10-04T21:41:48;5.45;;;2.88;;
60494;SDS011;46342;49.046;11.920;2022-10-04T21:44:14;4.65;;;2.83;;
60494;SDS011;46342;49.046;11.920;2022-10-04T21:46:39;3.17;;;2.70;;
60494;SDS011;46342;49.046;11.920;2022-10-04T21:49:05;4.13;;;2.50;;
60494;SDS011;46342;49.046;11.920;2022-10-04T21:51:31;3.00;;;2.70;;
60494;SDS011;46342;49.046;11.920;2022-10-04T21:54:00;5.25;;;2.83;;
60494;SDS011;46342;49.046;11.920;2022-10-04T21:56:29;12.95;;;3.03;;
60494;SDS011;46342;49.046;11.920;2022-10-04T21:58:54;4.30;;;2.42;;
60494;SDS011;46342;49.046;11.920;2022-10-04T22:01:20;6.78;;;2.75;;
60494;SDS011;46342;49.046;11.920;2022-10-04T22:03:46;2.97;;;2.17;;
60494;SDS011;46342;49.046;11.920;2022-10-04T22:06:11;2.80;;;2.25;;
60494;SDS011;46342;49.046;11.920;2022-10-04T22:08:37;3.10;;;2.28;;
60494;SDS011;46342;49.046;11.920;2022-10-04T22:11:02;7.20;;;2.30;;
60494;SDS011;46342;49.046;11.920;2022-10-04T22:13:28;4.15;;;2.67;;
60494;SDS011;46342;49.046;11.920;2022-10-04T22:15:54;4.90;;;2.20;;
60494;SDS011;46342;49.046;11.920;2022-10-04T22:18:19;4.07;;;2.13;;
60494;SDS011;46342;49.046;11.920;2022-10-04T22:20:45;4.72;;;2.38;;
60494;SDS011;46342;49.046;11.920;2022-10-04T22:23:17;3.38;;;2.38;;
60494;SDS011;46342;49.046;11.920;2022-10-04T22:25:45;4.80;;;2.15;;
60494;SDS011;46342;49.046;11.920;2022-10-04T22:28:20;4.65;;;1.92;;
60494;SDS011;46342;49.046;11.920;2022-10-04T22:30:48;4.05;;;2.30;;
60494;SDS011;46342;49.046;11.920;2022-10-04T22:33:26;3.47;;;1.98;;
60494;SDS011;46342;49.046;11.920;2022-10-04T22:35:58;2.53;;;2.30;;
60494;SDS011;46342;49.046;11.920;2022-10-04T22:38:53;2.60;;;2.08;;
60494;SDS011;46342;49.046;11.920;2022-10-04T22:41:34;7.75;;;2.40;;
60494;SDS011;46342;49.046;11.920;2022-10-04T22:44:08;3.03;;;2.25;;
60494;SDS011;46342;49.046;11.920;2022-10-04T22:46:41;4.93;;;2.42;;
60494;SDS011;46342;49.046;11.920;2022-10-04T22:49:09;2.88;;;2.17;;
60494;SDS011;46342;49.046;11.920;2022-10-04T22:51:37;2.38;;;2.08;;
60494;SDS011;46342;49.046;11.920;2022-10-04T22:54:12;2.53;;;2.30;;
60494;SDS011;46342;49.046;11.920;2022-10-04T22:56:39;2.78;;;2.22;;
60494;SDS011;46342;49.046;11.920;2022-10-04T22:59:09;3.65;;;2.17;;
60494;SDS011;46342;49.046;11.920;2022-10-04T23:01:36;2.95;;;2.22;;
60494;SDS011;46342;49.046;11.920;2022-10-04T23:04:02;5.47;;;2.25;;
60494;SDS011;46342;49.046;11.920;2022-10-04T23:06:35;2.83;;;2.33;;
60494;SDS011;46342;49.046;11.920;2022-10-04T23:09:00;2.58;;;2.10;;
60494;SDS011;46342;49.046;11.920;2022-10-04T23:11:29;5.00;;;2.20;;
60494;SDS011;46342;49.046;11.920;2022-10-04T23:13:56;2.15;;;1.80;;
60494;SDS011;46342;49.046;11.920;2022-10-04T23:16:22;2.92;;;1.85;;
60494;SDS011;46342;49.046;11.920;2022-10-04T23:18:47;2.17;;;1.98;;
60494;SDS011;46342;49.046;11.920;2022-10-04T23:21:18;2.30;;;2.10;;
60494;SDS011;46342;49.046;11.920;2022-10-04T23:23:46;2.25;;;2.05;;
60494;SDS011;46342;49.046;11.920;2022-10-04T23:26:13;3.05;;;2.40;;
60494;SDS011;46342;49.046;11.920;2022-10-04T23:28:50;3.13;;;1.90;;
60494;SDS011;46342;49.046;11.920;2022-10-04T23:31:23;2.45;;;2.10;;
60494;SDS011;46342;49.046;11.920;2022-10-04T23:33:50;2.78;;;2.20;;
60494;SDS011;46342;49.046;11.920;2022-10-04T23:36:19;6.00;;;2.63;;
60494;SDS011;46342;49.046;11.920;2022-10-04T23:38:49;2.95;;;2.65;;
60494;SDS011;46342;49.046;11.920;2022-10-04T23:41:20;3.58;;;2.67;;
60494;SDS011;46342;49.046;11.920;2022-10-04T23:43:46;4.05;;;2.90;;
60494;SDS011;46342;49.046;11.920;2022-10-04T23:46:14;11.52;;;3.83;;
60494;SDS011;46342;49.046;11.920;2022-10-04T23:48:42;4.65;;;3.38;;
60494;SDS011;46342;49.046;11.920;2022-10-04T23:51:12;4.53;;;3.17;;
60494;SDS011;46342;49.046;11.920;2022-10-04T23:53:40;7.50;;;3.03;;
60494;SDS011;46342;49.046;11.920;2022-10-04T23:56:12;5.10;;;2.72;;
60494;SDS011;46342;49.046;11.920;2022-10-04T23:58:42;3.22;;;2.58;;
